sensor_id;sensor_type;location;lat;lon;timestamp;pressure;altitude;pressure_sealevel;temperature;humidity
5996;BME280;3026;53.612;7.278;2023-12-07T00:00:47;101680.44;;;2.95;100.00
5996;BME280;3026;53.612;7.278;2023-12-07T00:03:15;101675.03;;;2.95;100.00
5996;BME280;3026;53.612;7.278;2023-12-07T00:05:42;101675.03;;;2.95;100.00
5996;BME280;3026;53.612;7.278;2023-12-07T00:08:09;101672.34;;;2.95;100.00
5996;BME280;3026;53.612;7.278;2023-12-07T00:10:38;101675.03;;;2.95;100.00
5996;BME280;3026;53.612;7.278;2023-12-07T00:13:05;101676.78;;;2.96;100.00
5996;BME280;3026;53.612;7.278;2023-12-07T00:15:33;101671.38;;;2.96;100.00
5996;BME280;3026;53.612;7.278;2023-12-07T00:18:01;101676.78;;;2.96;100.00
5996;BME280;3026;53.612;7.278;2023-12-07T00:20:29;101667.94;;;2.93;100.00
5996;BME280;3026;53.612;7.278;2023-12-07T00:22:56;101669.88;;;2.91;100.00
5996;BME280;3026;53.612;7.278;2023-12-07T00:25:23;101669.88;;;2.91;100.00
5996;BME280;3026;53.612;7.278;2023-12-07T00:27:50;101678.91;;;2.90;100.00
5996;BME280;3026;53.612;7.278;2023-12-07T00:30:18;101686.16;;;2.90;100.00
5996;BME280;3026;53.612;7.278;2023-12-07T00:32:46;101679.09;;;2.87;100.00
5996;BME280;3026;53.612;7.278;2023-12-07T00:35:15;101684.50;;;2.87;100.00
5996;BME280;3026;53.612;7.278;2023-12-07T00:37:43;101688.16;;;2.86;100.00
5996;BME280;3026;53.612;7.278;2023-12-07T00:40:13;101693.53;;;2.86;100.00
5996;BME280;3026;53.612;7.278;2023-12-07T00:42:41;101690.09;;;2.84;100.00
5996;BME280;3026;53.612;7.278;2023-12-07T00:45:09;101693.75;;;2.83;100.00
5996;BME280;3026;53.612;7.278;2023-12-07T00:47:39;101697.41;;;2.82;100.00
5996;BME280;3026;53.612;7.278;2023-12-07T00:50:07;101699.34;;;2.80;100.00
5996;BME280;3026;53.612;7.278;2023-12-07T00:52:37;101693.22;;;2.78;100.00
5996;BME280;3026;53.612;7.278;2023-12-07T00:55:05;101701.28;;;2.78;100.00
5996;BME280;3026;53.612;7.278;2023-12-07T00:57:33;101701.47;;;2.75;100.00
5996;BME280;3026;53.612;7.278;2023-12-07T01:00:00;101705.13;;;2.74;100.00
5996;BME280;3026;53.612;7.278;2023-12-07T01:02:29;101703.41;;;2.73;100.00
5996;BME280;3026;53.612;7.278;2023-12-07T01:04:56;101711.47;;;2.73;100.00
5996;BME280;3026;53.612;7.278;2023-12-07T01:07:24;101708.91;;;2.72;100.00
5996;BME280;3026;53.612;7.278;2023-12-07T01:09:52;101699.97;;;2.71;100.00
5996;BME280;3026;53.612;7.278;2023-12-07T01:12:19;101705.22;;;2.73;100.00
5996;BME280;3026;53.612;7.278;2023-12-07T01:14:48;101700.72;;;2.73;100.00
5996;BME280;3026;53.612;7.278;2023-12-07T01:17:15;101708.78;;;2.73;100.00
5996;BME280;3026;53.612;7.278;2023-12-07T01:19:42;101708.78;;;2.73;100.00
5996;BME280;3026;53.612;7.278;2023-12-07T01:22:10;101724.94;;;2.73;100.00
5996;BME280;3026;53.612;7.278;2023-12-07T01:24:37;101719.56;;;2.73;100.00
5996;BME280;3026;53.612;7.278;2023-12-07T01:27:06;101725.16;;;2.70;100.00
5996;BME280;3026;53.612;7.278;2023-12-07T01:29:34;101729.69;;;2.70;100.00
5996;BME280;3026;53.612;7.278;2023-12-07T01:32:02;101729.78;;;2.68;100.00
5996;BME280;3026;53.612;7.278;2023-12-07T01:34:29;101724.50;;;2.67;100.00
5996;BME280;3026;53.612;7.278;2023-12-07T01:36:56;101727.19;;;2.67;100.00
5996;BME280;3026;53.612;7.278;2023-12-07T01:39:24;101730.75;;;2.67;100.00
5996;BME280;3026;53.612;7.278;2023-12-07T01:41:56;101730.75;;;2.67;100.00
5996;BME280;3026;53.612;7.278;2023-12-07T01:44:24;101728.06;;;2.67;100.00
5996;BME280;3026;53.612;7.278;2023-12-07T01:46:53;101732.47;;;2.68;100.00
5996;BME280;3026;53.612;7.278;2023-12-07T01:49:22;101739.78;;;2.66;100.00
5996;BME280;3026;53.612;7.278;2023-12-07T01:51:49;101732.66;;;2.65;100.00
5996;BME280;3026;53.612;7.278;2023-12-07T01:54:16;101738.16;;;2.63;100.00
5996;BME280;3026;53.612;7.278;2023-12-07T01:56:44;101735.47;;;2.63;100.00
5996;BME280;3026;53.612;7.278;2023-12-07T01:59:11;101725.75;;;2.61;100.00
5996;BME280;3026;53.612;7.278;2023-12-07T02:01:40;101719.50;;;2.60;100.00
5996;BME280;3026;53.612;7.278;2023-12-07T02:04:09;101722.31;;;2.59;100.00
5996;BME280;3026;53.612;7.278;2023-12-07T02:06:37;101721.44;;;2.58;100.00
5996;BME280;3026;53.612;7.278;2023-12-07T02:09:04;101733.06;;;2.59;100.00
5996;BME280;3026;53.612;7.278;2023-12-07T02:11:33;101726.81;;;2.58;100.00
5996;BME280;3026;53.612;7.278;2023-12-07T02:14:00;101738.47;;;2.59;100.00
5996;BME280;3026;53.612;7.278;2023-12-07T02:16:31;101735.88;;;2.57;100.00
5996;BME280;3026;53.612;7.278;2023-12-07T02:19:17;101734.91;;;2.58;100.00
5996;BME280;3026;53.612;7.278;2023-12-07T02:21:53;101738.47;;;2.59;100.00
5996;BME280;3026;53.612;7.278;2023-12-07T02:24:26;101738.47;;;2.59;100.00
5996;BME280;3026;53.612;7.278;2023-12-07T02:26:57;101737.59;;;2.58;100.00
5996;BME280;3026;53.612;7.278;2023-12-07T02:29:24;101742.97;;;2.58;100.00
5996;BME280;3026;53.612;7.278;2023-12-07T02:31:51;101737.59;;;2.58;100.00
5996;BME280;3026;53.612;7.278;2023-12-07T02:34:19;101738.47;;;2.59;100.00
5996;BME280;3026;53.612;7.278;2023-12-07T02:36:46;101741.16;;;2.59;100.00
5996;BME280;3026;53.612;7.278;2023-12-07T02:39:16;101747.50;;;2.58;100.00
5996;BME280;3026;53.612;7.278;2023-12-07T02:41:45;101749.44;;;2.56;100.00
5996;BME280;3026;53.612;7.278;2023-12-07T02:44:15;101754.81;;;2.56;100.00
5996;BME280;3026;53.612;7.278;2023-12-07T02:46:43;101758.38;;;2.56;100.00
5996;BME280;3026;53.612;7.278;2023-12-07T02:49:11;101759.25;;;2.57;100.00
5996;BME280;3026;53.612;7.278;2023-12-07T02:51:39;101753.00;;;2.56;100.00
5996;BME280;3026;53.612;7.278;2023-12-07T02:54:06;101760.97;;;2.58;100.00
5996;BME280;3026;53.612;7.278;2023-12-07T02:56:34;101758.28;;;2.58;100.00
5996;BME280;3026;53.612;7.278;2023-12-07T02:59:01;101752.88;;;2.58;100.00
5996;BME280;3026;53.612;7.278;2023-12-07T03:01:32;101751.16;;;2.57;100.00
5996;BME280;3026;53.612;7.278;2023-12-07T03:04:01;101745.78;;;2.57;100.00
5996;BME280;3026;53.612;7.278;2023-12-07T03:06:29;101746.63;;;2.57;100.00
5996;BME280;3026;53.612;7.278;2023-12-07T03:08:56;101742.13;;;2.58;100.00
5996;BME280;3026;53.612;7.278;2023-12-07T03:11:25;101752.88;;;2.58;100.00
5996;BME280;3026;53.612;7.278;2023-12-07T03:13:52;101749.34;;;2.57;100.00
5996;BME280;3026;53.612;7.278;2023-12-07T03:16:19;101744.81;;;2.58;100.00
5996;BME280;3026;53.612;7.278;2023-12-07T03:18:47;101747.50;;;2.58;100.00
5996;BME280;3026;53.612;7.278;2023-12-07T03:21:14;101742.13;;;2.58;100.00
5996;BME280;3026;53.612;7.278;2023-12-07T03:23:42;101748.47;;;2.57;100.00
5996;BME280;3026;53.612;7.278;2023-12-07T03:26:09;101751.91;;;2.59;100.00
5996;BME280;3026;53.612;7.278;2023-12-07T03:28:36;101752.03;;;2.57;100.00
5996;BME280;3026;53.612;7.278;2023-12-07T03:31:04;101747.50;;;2.58;100.00
5996;BME280;3026;53.612;7.278;2023-12-07T03:33:31;101753.97;;;2.55;100.00
5996;BME280;3026;53.612;7.278;2023-12-07T03:36:01;101755.78;;;2.55;100.00
5996;BME280;3026;53.612;7.278;2023-12-07T03:38:27;101753.09;;;2.55;100.00
5996;BME280;3026;53.612;7.278;2023-12-07T03:40:55;101761.25;;;2.53;100.00
5996;BME280;3026;53.612;7.278;2023-12-07T03:43:22;101764.03;;;2.52;100.00
5996;BME280;3026;53.612;7.278;2023-12-07T03:45:48;101758.66;;;2.52;100.00
5996;BME280;3026;53.612;7.278;2023-12-07T03:48:15;101756.94;;;2.51;100.00
5996;BME280;3026;53.612;7.278;2023-12-07T03:50:42;101749.81;;;2.50;100.00
5996;BME280;3026;53.612;7.278;2023-12-07T03:53:11;101753.47;;;2.49;100.00
5996;BME280;3026;53.612;7.278;2023-12-07T03:55:38;101748.09;;;2.49;100.00
5996;BME280;3026;53.612;7.278;2023-12-07T03:58:05;101745.50;;;2.47;100.00
5996;BME280;3026;53.612;7.278;2023-12-07T04:00:32;101747.22;;;2.48;100.00
5996;BME280;3026;53.612;7.278;2023-12-07T04:03:00;101736.47;;;2.48;100.00
5996;BME280;3026;53.612;7.278;2023-12-07T04:05:27;101738.28;;;2.48;100.00
5996;BME280;3026;53.612;7.278;2023-12-07T04:07:57;101742.69;;;2.49;100.00
5996;BME280;3026;53.612;7.278;2023-12-07T04:10:26;101735.59;;;2.48;100.00
5996;BME280;3026;53.612;7.278;2023-12-07T04:12:53;101736.56;;;2.47;100.00
5996;BME280;3026;53.612;7.278;2023-12-07T04:15:20;101748.28;;;2.46;100.00
5996;BME280;3026;53.612;7.278;2023-12-07T04:17:48;101739.25;;;2.47;100.00
5996;BME280;3026;53.612;7.278;2023-12-07T04:20:15;101747.31;;;2.47;100.00
5996;BME280;3026;53.612;7.278;2023-12-07T04:22:43;101751.00;;;2.46;100.00
5996;BME280;3026;53.612;7.278;2023-12-07T04:25:11;101742.91;;;2.46;100.00
5996;BME280;3026;53.612;7.278;2023-12-07T04:27:40;101742.91;;;2.46;100.00
5996;BME280;3026;53.612;7.278;2023-12-07T04:30:08;101748.28;;;2.46;100.00
5996;BME280;3026;53.612;7.278;2023-12-07T04:32:36;101751.75;;;2.48;100.00
5996;BME280;3026;53.612;7.278;2023-12-07T04:35:04;101751.75;;;2.48;100.00
5996;BME280;3026;53.612;7.278;2023-12-07T04:37:34;101747.13;;;2.50;100.00
5996;BME280;3026;53.612;7.278;2023-12-07T04:40:01;101758.84;;;2.49;100.00
5996;BME280;3026;53.612;7.278;2023-12-07T04:42:29;101758.84;;;2.49;100.00
5996;BME280;3026;53.612;7.278;2023-12-07T04:44:58;101760.59;;;2.50;100.00
5996;BME280;3026;53.612;7.278;2023-12-07T04:47:26;101756.94;;;2.51;100.00
5996;BME280;3026;53.612;7.278;2023-12-07T04:49:54;101755.19;;;2.50;100.00
5996;BME280;3026;53.612;7.278;2023-12-07T04:52:21;101763.19;;;2.51;100.00
5996;BME280;3026;53.612;7.278;2023-12-07T04:54:51;101765.97;;;2.50;100.00
5996;BME280;3026;53.612;7.278;2023-12-07T04:57:18;101778.66;;;2.48;100.00
5996;BME280;3026;53.612;7.278;2023-12-07T04:59:46;101780.59;;;2.46;100.00
5996;BME280;3026;53.612;7.278;2023-12-07T05:02:27;101784.25;;;2.45;100.00
5996;BME280;3026;53.612;7.278;2023-12-07T05:04:54;101777.16;;;2.44;100.00
5996;BME280;3026;53.612;7.278;2023-12-07T05:07:21;101773.50;;;2.45;100.00
5996;BME280;3026;53.612;7.278;2023-12-07T05:09:49;101775.22;;;2.46;100.00
5996;BME280;3026;53.612;7.278;2023-12-07T05:12:17;101779.72;;;2.45;100.00
5996;BME280;3026;53.612;7.278;2023-12-07T05:14:44;101782.31;;;2.47;100.00
5996;BME280;3026;53.612;7.278;2023-12-07T05:17:11;101778.78;;;2.46;100.00
5996;BME280;3026;53.612;7.278;2023-12-07T05:19:40;101773.50;;;2.45;100.00
5996;BME280;3026;53.612;7.278;2023-12-07T05:22:09;101772.53;;;2.46;100.00
5996;BME280;3026;53.612;7.278;2023-12-07T05:24:38;101773.50;;;2.45;100.00
5996;BME280;3026;53.612;7.278;2023-12-07T05:27:07;101777.16;;;2.44;100.00
5996;BME280;3026;53.612;7.278;2023-12-07T05:29:34;101778.88;;;2.45;100.00
5996;BME280;3026;53.612;7.278;2023-12-07T05:32:02;101771.56;;;2.47;100.00
5996;BME280;3026;53.612;7.278;2023-12-07T05:34:29;101775.22;;;2.46;100.00
5996;BME280;3026;53.612;7.278;2023-12-07T05:37:01;101773.28;;;2.48;100.00
5996;BME280;3026;53.612;7.278;2023-12-07T05:39:31;101767.91;;;2.48;100.00
5996;BME280;3026;53.612;7.278;2023-12-07T05:41:58;101767.91;;;2.48;100.00
5996;BME280;3026;53.612;7.278;2023-12-07T05:44:27;101764.25;;;2.49;100.00
5996;BME280;3026;53.612;7.278;2023-12-07T05:46:55;101765.09;;;2.49;100.00
5996;BME280;3026;53.612;7.278;2023-12-07T05:49:23;101762.41;;;2.49;100.00
5996;BME280;3026;53.612;7.278;2023-12-07T05:51:51;101760.59;;;2.50;100.00
5996;BME280;3026;53.612;7.278;2023-12-07T05:54:21;101758.84;;;2.49;100.00
5996;BME280;3026;53.612;7.278;2023-12-07T05:56:50;101756.16;;;2.49;100.00
5996;BME280;3026;53.612;7.278;2023-12-07T05:59:23;101755.19;;;2.50;100.00
5996;BME280;3026;53.612;7.278;2023-12-07T06:01:51;101754.44;;;2.48;100.00
5996;BME280;3026;53.612;7.278;2023-12-07T06:04:20;101760.78;;;2.47;100.00
5996;BME280;3026;53.612;7.278;2023-12-07T06:06:47;101753.69;;;2.46;100.00
5996;BME280;3026;53.612;7.278;2023-12-07T06:09:14;101763.59;;;2.45;100.00
5996;BME280;3026;53.612;7.278;2023-12-07T06:11:42;101753.78;;;2.44;100.00
5996;BME280;3026;53.612;7.278;2023-12-07T06:14:09;101763.59;;;2.45;100.00
5996;BME280;3026;53.612;7.278;2023-12-07T06:16:37;101775.22;;;2.46;100.00
5996;BME280;3026;53.612;7.278;2023-12-07T06:19:04;101766.28;;;2.45;100.00
5996;BME280;3026;53.612;7.278;2023-12-07T06:21:31;101770.69;;;2.46;100.00
5996;BME280;3026;53.612;7.278;2023-12-07T06:23:59;101770.69;;;2.46;100.00
5996;BME280;3026;53.612;7.278;2023-12-07T06:26:26;101766.19;;;2.47;100.00
5996;BME280;3026;53.612;7.278;2023-12-07T06:28:59;101765.31;;;2.46;100.00
5996;BME280;3026;53.612;7.278;2023-12-07T06:31:26;101764.44;;;2.46;100.00
5996;BME280;3026;53.612;7.278;2023-12-07T06:33:53;101771.56;;;2.47;100.00
5996;BME280;3026;53.612;7.278;2023-12-07T06:36:21;101766.19;;;2.47;100.00
5996;BME280;3026;53.612;7.278;2023-12-07T06:38:49;101779.63;;;2.47;100.00
5996;BME280;3026;53.612;7.278;2023-12-07T06:41:18;101776.94;;;2.47;100.00
5996;BME280;3026;53.612;7.278;2023-12-07T06:43:45;101782.31;;;2.47;100.00
5996;BME280;3026;53.612;7.278;2023-12-07T06:46:14;101781.47;;;2.46;100.00
5996;BME280;3026;53.612;7.278;2023-12-07T06:48:42;101778.88;;;2.45;100.00
5996;BME280;3026;53.612;7.278;2023-12-07T06:51:10;101798.47;;;2.47;100.00
5996;BME280;3026;53.612;7.278;2023-12-07T06:53:38;101786.84;;;2.46;100.00
5996;BME280;3026;53.612;7.278;2023-12-07T06:56:14;101786.09;;;2.44;100.00
5996;BME280;3026;53.612;7.278;2023-12-07T06:58:41;101789.63;;;2.45;100.00
5996;BME280;3026;53.612;7.278;2023-12-07T07:01:10;101793.28;;;2.44;100.00
5996;BME280;3026;53.612;7.278;2023-12-07T07:03:41;101790.59;;;2.44;100.00
5996;BME280;3026;53.612;7.278;2023-12-07T07:06:09;101785.22;;;2.44;100.00
5996;BME280;3026;53.612;7.278;2023-12-07T07:08:36;101793.28;;;2.44;100.00
5996;BME280;3026;53.612;7.278;2023-12-07T07:11:11;101791.38;;;2.46;100.00
5996;BME280;3026;53.612;7.278;2023-12-07T07:13:38;101797.63;;;2.46;100.00
5996;BME280;3026;53.612;7.278;2023-12-07T07:16:07;101788.69;;;2.46;100.00
5996;BME280;3026;53.612;7.278;2023-12-07T07:18:34;101795.78;;;2.47;100.00
5996;BME280;3026;53.612;7.278;2023-12-07T07:21:05;101785.00;;;2.47;100.00
5996;BME280;3026;53.612;7.278;2023-12-07T07:23:32;101793.09;;;2.47;100.00
5996;BME280;3026;53.612;7.278;2023-12-07T07:25:59;101800.22;;;2.48;100.00
5996;BME280;3026;53.612;7.278;2023-12-07T07:28:26;101807.53;;;2.46;100.00
5996;BME280;3026;53.612;7.278;2023-12-07T07:30:54;101804.81;;;2.46;100.00
5996;BME280;3026;53.612;7.278;2023-12-07T07:33:21;101803.88;;;2.47;100.00
5996;BME280;3026;53.612;7.278;2023-12-07T07:35:49;101800.22;;;2.48;100.00
5996;BME280;3026;53.612;7.278;2023-12-07T07:38:18;101802.03;;;2.47;100.00
5996;BME280;3026;53.612;7.278;2023-12-07T07:40:45;101805.59;;;2.48;100.00
5996;BME280;3026;53.612;7.278;2023-12-07T07:43:14;101807.31;;;2.49;100.00
5996;BME280;3026;53.612;7.278;2023-12-07T07:45:43;101817.13;;;2.50;100.00
5996;BME280;3026;53.612;7.278;2023-12-07T07:48:11;101816.25;;;2.49;100.00
5996;BME280;3026;53.612;7.278;2023-12-07T07:50:38;101812.69;;;2.49;100.00
5996;BME280;3026;53.612;7.278;2023-12-07T07:53:06;101819.81;;;2.50;100.00
5996;BME280;3026;53.612;7.278;2023-12-07T07:55:36;101818.94;;;2.49;100.00
5996;BME280;3026;53.612;7.278;2023-12-07T07:58:03;101819.81;;;2.50;100.00
5996;BME280;3026;53.612;7.278;2023-12-07T08:00:32;101818.84;;;2.51;100.00
5996;BME280;3026;53.612;7.278;2023-12-07T08:03:00;101818.75;;;2.52;100.00
5996;BME280;3026;53.612;7.278;2023-12-07T08:05:27;101820.56;;;2.52;100.00
5996;BME280;3026;53.612;7.278;2023-12-07T08:07:55;101825.00;;;2.53;100.00
5996;BME280;3026;53.612;7.278;2023-12-07T08:10:22;101820.41;;;2.55;100.00
5996;BME280;3026;53.612;7.278;2023-12-07T08:12:51;101828.47;;;2.55;100.00
5996;BME280;3026;53.612;7.278;2023-12-07T08:15:20;101829.34;;;2.55;100.00
5996;BME280;3026;53.612;7.278;2023-12-07T08:17:47;101828.47;;;2.55;100.00
5996;BME280;3026;53.612;7.278;2023-12-07T08:20:17;101823.09;;;2.55;100.00
5996;BME280;3026;53.612;7.278;2023-12-07T08:22:44;101825.78;;;2.55;100.00
5996;BME280;3026;53.612;7.278;2023-12-07T08:25:12;101822.13;;;2.56;100.00
5996;BME280;3026;53.612;7.278;2023-12-07T08:27:39;101824.81;;;2.56;100.00
5996;BME280;3026;53.612;7.278;2023-12-07T08:30:10;101826.56;;;2.57;100.00
5996;BME280;3026;53.612;7.278;2023-12-07T08:32:37;101832.81;;;2.57;100.00
5996;BME280;3026;53.612;7.278;2023-12-07T08:35:05;101819.44;;;2.56;100.00
5996;BME280;3026;53.612;7.278;2023-12-07T08:37:37;101823.75;;;2.58;100.00
5996;BME280;3026;53.612;7.278;2023-12-07T08:40:05;101826.34;;;2.60;100.00
5996;BME280;3026;53.612;7.278;2023-12-07T08:42:32;101834.44;;;2.60;100.00
5996;BME280;3026;53.612;7.278;2023-12-07T08:45:01;101822.69;;;2.61;100.00
5996;BME280;3026;53.612;7.278;2023-12-07T08:47:30;101826.16;;;2.63;100.00
5996;BME280;3026;53.612;7.278;2023-12-07T08:49:58;101822.50;;;2.64;100.00
5996;BME280;3026;53.612;7.278;2023-12-07T08:52:41;101819.69;;;2.66;100.00
5996;BME280;3026;53.612;7.278;2023-12-07T08:55:17;101827.69;;;2.67;100.00
5996;BME280;3026;53.612;7.278;2023-12-07T08:57:44;101818.66;;;2.68;100.00
5996;BME280;3026;53.612;7.278;2023-12-07T09:00:12;101827.50;;;2.70;100.00
5996;BME280;3026;53.612;7.278;2023-12-07T09:02:42;101820.19;;;2.72;100.00
5996;BME280;3026;53.612;7.278;2023-12-07T09:05:09;101819.97;;;2.75;100.00
5996;BME280;3026;53.612;7.278;2023-12-07T09:07:36;101816.31;;;2.76;100.00
5996;BME280;3026;53.612;7.278;2023-12-07T09:10:08;101816.16;;;2.79;100.00
5996;BME280;3026;53.612;7.278;2023-12-07T09:12:35;101817.00;;;2.80;100.00
5996;BME280;3026;53.612;7.278;2023-12-07T09:15:03;101821.31;;;2.82;100.00
5996;BME280;3026;53.612;7.278;2023-12-07T09:17:31;101822.19;;;2.83;100.00
5996;BME280;3026;53.612;7.278;2023-12-07T09:20:04;101823.06;;;2.83;100.00
5996;BME280;3026;53.612;7.278;2023-12-07T09:22:35;101830.16;;;2.84;100.00
5996;BME280;3026;53.612;7.278;2023-12-07T09:25:04;101817.47;;;2.86;100.00
5996;BME280;3026;53.612;7.278;2023-12-07T09:27:33;101816.59;;;2.86;100.00
5996;BME280;3026;53.612;7.278;2023-12-07T09:30:02;101811.91;;;2.89;100.00
5996;BME280;3026;53.612;7.278;2023-12-07T09:32:29;101817.94;;;2.93;100.00
5996;BME280;3026;53.612;7.278;2023-12-07T09:34:56;101822.25;;;2.96;100.00
5996;BME280;3026;53.612;7.278;2023-12-07T09:37:27;101825.72;;;2.98;100.00
5996;BME280;3026;53.612;7.278;2023-12-07T09:39:54;101827.25;;;3.02;100.00
5996;BME280;3026;53.612;7.278;2023-12-07T09:42:21;101827.16;;;3.03;100.00
5996;BME280;3026;53.612;7.278;2023-12-07T09:44:50;101833.19;;;3.07;100.00
5996;BME280;3026;53.612;7.278;2023-12-07T09:47:17;101833.97;;;3.09;100.00
5996;BME280;3026;53.612;7.278;2023-12-07T09:49:45;101839.13;;;3.12;100.00
5996;BME280;3026;53.612;7.278;2023-12-07T09:52:13;101837.22;;;3.14;100.00
5996;BME280;3026;53.612;7.278;2023-12-07T09:54:43;101837.22;;;3.14;100.00
5996;BME280;3026;53.612;7.278;2023-12-07T09:57:11;101840.69;;;3.16;100.00
5996;BME280;3026;53.612;7.278;2023-12-07T09:59:40;101846.84;;;3.18;100.00
5996;BME280;3026;53.612;7.278;2023-12-07T10:02:08;101844.91;;;3.20;100.00
5996;BME280;3026;53.612;7.278;2023-12-07T10:04:35;101839.50;;;3.20;100.00
5996;BME280;3026;53.612;7.278;2023-12-07T10:07:03;101842.00;;;3.23;100.00
5996;BME280;3026;53.612;7.278;2023-12-07T10:09:34;101844.63;;;3.25;100.00
5996;BME280;3026;53.612;7.278;2023-12-07T10:12:06;101834.69;;;3.25;100.00
5996;BME280;3026;53.612;7.278;2023-12-07T10:14:33;101832.00;;;3.25;100.00
5996;BME280;3026;53.612;7.278;2023-12-07T10:17:01;101831.78;;;3.28;100.00
5996;BME280;3026;53.612;7.278;2023-12-07T10:19:29;101825.44;;;3.29;100.00
5996;BME280;3026;53.612;7.278;2023-12-07T10:21:58;101831.69;;;3.30;100.00
5996;BME280;3026;53.612;7.278;2023-12-07T10:24:26;101832.56;;;3.30;100.00
5996;BME280;3026;53.612;7.278;2023-12-07T10:26:55;101831.69;;;3.30;100.00
5996;BME280;3026;53.612;7.278;2023-12-07T10:29:28;101827.16;;;3.30;100.00
5996;BME280;3026;53.612;7.278;2023-12-07T10:32:00;101821.75;;;3.30;100.00
5996;BME280;3026;53.612;7.278;2023-12-07T10:34:30;101818.97;;;3.32;100.00
5996;BME280;3026;53.612;7.278;2023-12-07T10:36:59;101812.50;;;3.34;100.00
5996;BME280;3026;53.612;7.278;2023-12-07T10:39:26;101815.88;;;3.38;100.00
5996;BME280;3026;53.612;7.278;2023-12-07T10:41:57;101820.19;;;3.40;100.00
5996;BME280;3026;53.612;7.278;2023-12-07T10:44:30;101811.13;;;3.41;100.00
5996;BME280;3026;53.612;7.278;2023-12-07T10:47:02;101801.84;;;3.45;100.00
5996;BME280;3026;53.612;7.278;2023-12-07T10:49:29;101793.59;;;3.48;100.00
5996;BME280;3026;53.612;7.278;2023-12-07T10:51:59;101795.09;;;3.53;100.00
5996;BME280;3026;53.612;7.278;2023-12-07T10:54:33;101803.06;;;3.54;100.00
5996;BME280;3026;53.612;7.278;2023-12-07T10:57:08;101798.44;;;3.56;100.00
5996;BME280;3026;53.612;7.278;2023-12-07T10:59:42;101799.88;;;3.62;100.00
5996;BME280;3026;53.612;7.278;2023-12-07T11:02:12;101796.19;;;3.63;100.00
5996;BME280;3026;53.612;7.278;2023-12-07T11:04:41;101785.94;;;3.68;100.00
5996;BME280;3026;53.612;7.278;2023-12-07T11:07:12;101784.78;;;3.72;100.00
5996;BME280;3026;53.612;7.278;2023-12-07T11:09:45;101788.47;;;3.71;100.00
5996;BME280;3026;53.612;7.278;2023-12-07T11:12:30;101779.19;;;3.75;100.00
5996;BME280;3026;53.612;7.278;2023-12-07T11:15:03;101778.09;;;3.77;100.00
5996;BME280;3026;53.612;7.278;2023-12-07T11:17:49;101777.22;;;3.77;100.00
5996;BME280;3026;53.612;7.278;2023-12-07T11:20:35;101771.72;;;3.78;100.00
5996;BME280;3026;53.612;7.278;2023-12-07T11:23:07;101772.47;;;3.80;100.00
5996;BME280;3026;53.612;7.278;2023-12-07T11:25:35;101763.22;;;3.85;100.00
5996;BME280;3026;53.612;7.278;2023-12-07T11:28:03;101763.84;;;3.88;100.00
5996;BME280;3026;53.612;7.278;2023-12-07T11:30:36;101751.13;;;3.90;100.00
5996;BME280;3026;53.612;7.278;2023-12-07T11:33:04;101754.56;;;3.92;100.00
5996;BME280;3026;53.612;7.278;2023-12-07T11:35:32;101758.25;;;3.91;100.00
5996;BME280;3026;53.612;7.278;2023-12-07T11:38:02;101763.34;;;3.96;100.00
5996;BME280;3026;53.612;7.278;2023-12-07T11:40:36;101766.91;;;3.96;100.00
5996;BME280;3026;53.612;7.278;2023-12-07T11:43:03;101763.22;;;3.97;100.00
5996;BME280;3026;53.612;7.278;2023-12-07T11:45:39;101763.22;;;3.97;100.00
5996;BME280;3026;53.612;7.278;2023-12-07T11:48:09;101762.13;;;4.00;100.00
5996;BME280;3026;53.612;7.278;2023-12-07T11:50:59;101771.84;;;4.02;100.00
5996;BME280;3026;53.612;7.278;2023-12-07T11:53:27;101771.66;;;4.05;100.00
5996;BME280;3026;53.612;7.278;2023-12-07T11:55:57;101776.81;;;4.08;100.00
5996;BME280;3026;53.612;7.278;2023-12-07T11:58:25;101770.47;;;4.09;100.00
5996;BME280;3026;53.612;7.278;2023-12-07T12:00:54;101772.94;;;4.13;100.00
5996;BME280;3026;53.612;7.278;2023-12-07T12:03:22;101774.66;;;4.14;100.00
5996;BME280;3026;53.612;7.278;2023-12-07T12:05:49;101763.84;;;4.14;100.00
5996;BME280;3026;53.612;7.278;2023-12-07T12:08:16;101773.56;;;4.16;100.00
5996;BME280;3026;53.612;7.278;2023-12-07T12:10:46;101770.78;;;4.18;100.00
5996;BME280;3026;53.612;7.278;2023-12-07T12:13:15;101766.25;;;4.31;100.00
5996;BME280;3026;53.612;7.278;2023-12-07T12:15:43;101761.84;;;4.66;100.00
5996;BME280;3026;53.612;7.278;2023-12-07T12:18:12;101761.75;;;4.92;100.00
5996;BME280;3026;53.612;7.278;2023-12-07T12:20:40;101744.88;;;5.01;100.00
5996;BME280;3026;53.612;7.278;2023-12-07T12:23:08;101738.59;;;5.01;100.00
5996;BME280;3026;53.612;7.278;2023-12-07T12:25:37;101739.69;;;4.98;100.00
5996;BME280;3026;53.612;7.278;2023-12-07T12:28:06;101741.88;;;4.93;100.00
5996;BME280;3026;53.612;7.278;2023-12-07T12:30:34;101749.22;;;4.91;100.00
5996;BME280;3026;53.612;7.278;2023-12-07T12:33:02;101747.50;;;4.90;100.00
5996;BME280;3026;53.612;7.278;2023-12-07T12:35:31;101744.81;;;4.90;100.00
5996;BME280;3026;53.612;7.278;2023-12-07T12:37:58;101737.88;;;4.86;100.00
5996;BME280;3026;53.612;7.278;2023-12-07T12:40:28;101737.88;;;4.86;100.00
5996;BME280;3026;53.612;7.278;2023-12-07T12:42:58;101737.13;;;4.84;100.00
5996;BME280;3026;53.612;7.278;2023-12-07T12:45:25;101734.56;;;4.82;100.00
5996;BME280;3026;53.612;7.278;2023-12-07T12:47:54;101734.91;;;4.78;100.00
5996;BME280;3026;53.612;7.278;2023-12-07T12:50:38;101727.25;;;4.72;100.00
5996;BME280;3026;53.612;7.278;2023-12-07T12:53:06;101725.75;;;4.67;100.00
5996;BME280;3026;53.612;7.278;2023-12-07T12:55:36;101720.78;;;4.61;100.00
5996;BME280;3026;53.612;7.278;2023-12-07T12:58:06;101717.34;;;4.59;100.00
5996;BME280;3026;53.612;7.278;2023-12-07T13:00:34;101707.75;;;4.55;100.00
5996;BME280;3026;53.612;7.278;2023-12-07T13:03:03;101700.75;;;4.53;100.00
5996;BME280;3026;53.612;7.278;2023-12-07T13:05:31;101703.75;;;4.48;100.00
5996;BME280;3026;53.612;7.278;2023-12-07T13:08:01;101704.84;;;4.46;100.00
5996;BME280;3026;53.612;7.278;2023-12-07T13:10:29;101696.88;;;4.44;100.00
5996;BME280;3026;53.612;7.278;2023-12-07T13:12:57;101689.00;;;4.41;100.00
5996;BME280;3026;53.612;7.278;2023-12-07T13:15:24;101688.44;;;4.36;100.00
5996;BME280;3026;53.612;7.278;2023-12-07T13:17:53;101685.97;;;4.33;100.00